createdAt,value
2018-05-07T00:04:42.743Z,15.00
2018-05-07T00:09:47.431Z,14.90
2018-05-07T00:14:56.669Z,14.80
2018-05-07T00:20:03.167Z,14.70
2018-05-07T00:25:06.269Z,14.60
2018-05-07T00:30:09.735Z,14.50
2018-05-07T00:35:13.702Z,14.40
2018-05-07T00:40:17.784Z,14.30
2018-05-07T00:45:22.334Z,14.30
2018-05-07T00:50:26.147Z,14.20
2018-05-07T00:55:30.268Z,14.10
2018-05-07T01:00:34.473Z,14.00
2018-05-07T01:05:37.968Z,13.90
2018-05-07T01:10:41.638Z,13.80
2018-05-07T01:15:47.922Z,13.80
2018-05-07T01:20:51.689Z,13.70
2018-05-07T01:25:54.900Z,13.60
2018-05-07T01:30:58.566Z,13.50
2018-05-07T01:36:05.306Z,13.50
2018-05-07T01:41:11.473Z,13.40
2018-05-07T01:46:14.893Z,13.30
2018-05-07T01:51:21.356Z,13.30
2018-05-07T01:56:27.665Z,13.20
2018-05-07T02:01:30.958Z,13.10
2018-05-07T02:06:37.377Z,13.10
2018-05-07T02:11:43.208Z,13.00
2018-05-07T02:16:49.645Z,12.90
2018-05-07T02:21:53.822Z,12.80
2018-05-07T02:26:59.030Z,12.70
2018-05-07T02:32:08.132Z,12.70
2018-05-07T02:37:13.370Z,12.70
2018-05-07T02:42:20.731Z,12.70
2018-05-07T02:47:25.373Z,12.60
2018-05-07T02:52:33.761Z,12.60
2018-05-07T02:57:38.186Z,12.50
2018-05-07T03:02:41.183Z,12.50
2018-05-07T03:07:46.966Z,12.50
2018-05-07T03:12:52.596Z,12.40
2018-05-07T03:17:57.267Z,12.40
2018-05-07T03:28:07.241Z,12.30
2018-05-07T03:33:10.904Z,12.30
2018-05-07T03:38:14.462Z,12.30
2018-05-07T03:43:18.543Z,12.20
2018-05-07T03:48:24.052Z,12.20
2018-05-07T03:53:28.610Z,12.20
2018-05-07T03:58:31.765Z,12.10
2018-05-07T04:03:36.182Z,12.10
2018-05-07T04:08:43.582Z,12.10
2018-05-07T04:13:52.379Z,12.10
2018-05-07T04:19:07.400Z,12.10
2018-05-07T04:24:15.826Z,12.00
2018-05-07T04:29:22.307Z,12.10
2018-05-07T04:34:29.310Z,12.00
2018-05-07T04:44:40.060Z,12.10
2018-05-07T04:49:48.404Z,12.10
2018-05-07T04:55:03.027Z,12.20
2018-05-07T05:00:11.704Z,12.30
2018-05-07T05:05:20.071Z,12.40
2018-05-07T05:20:55.773Z,12.80
2018-05-07T05:26:11.237Z,13.00
2018-05-07T05:31:21.514Z,13.20
2018-05-07T05:36:31.163Z,13.60
2018-05-07T05:46:54.023Z,14.20
2018-05-07T06:02:39.151Z,15.30
2018-05-07T06:28:39.201Z,17.10
2018-05-07T06:33:58.531Z,17.50
2018-05-07T06:39:09.391Z,18.10
2018-05-07T06:44:34.010Z,18.10
2018-05-07T06:49:42.385Z,18.50
2018-05-07T06:54:51.558Z,18.80
2018-05-07T06:59:58.457Z,19.20
2018-05-07T07:10:39.003Z,19.90
2018-05-07T07:26:28.212Z,20.90
2018-05-07T07:42:23.902Z,21.90
2018-05-07T07:53:08.855Z,22.50
2018-05-07T08:03:29.959Z,23.40
2018-05-07T08:08:38.541Z,23.30
2018-05-07T08:18:49.457Z,23.60
2018-05-07T08:23:56.575Z,23.70
2018-05-07T12:01:06.414Z,29.00
2018-05-07T12:11:44.474Z,29.30
2018-05-07T12:22:11.138Z,29.50
2018-05-07T12:27:50.202Z,29.50
2018-05-07T12:32:57.923Z,29.50
2018-05-07T13:04:54.264Z,30.00
2018-05-07T13:09:56.998Z,30.00
2018-05-07T13:15:00.094Z,30.10
2018-05-07T13:20:03.065Z,30.10
2018-05-07T13:30:14.153Z,30.20
2018-05-07T13:35:16.840Z,30.20
2018-05-07T13:40:21.225Z,30.20
2018-05-07T13:45:27.263Z,30.10
2018-05-07T13:50:31.472Z,30.10
2018-05-07T13:55:35.839Z,30.10
2018-05-07T14:00:38.479Z,30.10
2018-05-07T14:05:41.424Z,30.10
2018-05-07T14:10:44.195Z,30.00
2018-05-07T14:15:47.514Z,29.90
2018-05-07T14:20:50.102Z,29.80
2018-05-07T14:25:52.888Z,29.70
2018-05-07T14:36:02.457Z,29.60
2018-05-07T14:41:05.435Z,29.60
2018-05-07T14:46:08.427Z,29.60
2018-05-07T14:51:11.216Z,29.40
2018-05-07T14:56:14.076Z,29.40
2018-05-07T15:01:17.622Z,29.30
2018-05-07T15:06:21.917Z,29.20
2018-05-07T15:16:32.111Z,29.10
2018-05-07T15:21:36.437Z,29.10
2018-05-07T15:26:39.077Z,29.00
2018-05-07T15:31:43.503Z,28.90
2018-05-07T15:36:46.456Z,28.90
2018-05-07T15:41:49.080Z,28.80
2018-05-07T15:51:58.878Z,28.60
2018-05-07T15:57:02.989Z,28.40
2018-05-07T16:02:05.583Z,28.40
2018-05-07T16:07:09.919Z,28.30
2018-05-07T16:12:12.751Z,28.20
2018-05-07T16:17:16.184Z,28.10
2018-05-07T16:22:19.060Z,28.00
2018-05-07T16:27:22.134Z,27.90
2018-05-07T16:32:25.566Z,27.80
2018-05-07T16:37:28.437Z,27.70
2018-05-07T16:42:31.095Z,27.60
2018-05-07T16:47:33.775Z,27.50
2018-05-07T16:52:36.489Z,27.30
2018-05-07T16:57:39.478Z,27.20
2018-05-07T17:02:42.354Z,27.10
2018-05-07T17:07:47.315Z,26.80
2018-05-07T17:12:50.819Z,26.80
2018-05-07T17:17:54.169Z,26.60
2018-05-07T17:22:56.761Z,26.40
2018-05-07T17:27:59.620Z,26.30
2018-05-07T17:33:02.926Z,26.10
2018-05-07T17:38:07.287Z,25.90
2018-05-07T17:43:13.053Z,25.80
2018-05-07T17:48:29.000Z,25.60
2018-05-07T17:53:33.204Z,25.40
2018-05-07T17:58:37.384Z,25.30
2018-05-07T18:03:41.773Z,25.10
2018-05-07T18:08:45.916Z,24.80
2018-05-07T18:13:48.451Z,24.80
2018-05-07T18:18:51.096Z,24.60
2018-05-07T18:23:54.490Z,24.40
2018-05-07T18:28:57.854Z,24.30
2018-05-07T18:34:00.455Z,24.10
2018-05-07T18:39:03.076Z,24.00
2018-05-07T18:44:05.720Z,23.80
2018-05-07T18:49:14.494Z,23.70
2018-05-07T18:54:17.860Z,23.50
2018-05-07T18:59:20.643Z,23.40
2018-05-07T19:04:24.022Z,23.30
2018-05-07T19:09:26.959Z,23.10
2018-05-07T19:14:30.295Z,22.80
2018-05-07T19:19:36.385Z,22.80
2018-05-07T19:24:40.559Z,22.70
2018-05-07T19:29:43.415Z,22.60
2018-05-07T19:34:46.308Z,22.40
2018-05-07T19:44:58.307Z,22.20
2018-05-07T19:50:03.093Z,22.10
2018-05-07T19:55:06.612Z,21.90
2018-05-07T20:00:10.936Z,21.80
2018-05-07T20:05:14.242Z,21.70
2018-05-07T20:10:17.098Z,21.60
2018-05-07T20:15:20.840Z,21.50
2018-05-07T20:20:23.825Z,21.40
2018-05-07T20:25:27.818Z,21.30
2018-05-07T20:30:31.105Z,21.20
2018-05-07T20:35:33.673Z,21.00
2018-05-07T20:40:37.322Z,20.90
2018-05-07T20:45:40.219Z,20.80
2018-05-07T20:50:42.822Z,20.80
2018-05-07T20:55:46.920Z,20.60
2018-05-07T21:00:50.225Z,20.50
2018-05-07T21:05:56.914Z,20.50
2018-05-07T21:11:00.151Z,20.40
2018-05-07T21:16:02.761Z,20.30
2018-05-07T21:21:06.019Z,20.10
2018-05-07T21:26:09.244Z,20.10
2018-05-07T21:31:12.539Z,19.90
2018-05-07T21:36:17.396Z,19.80
2018-05-07T21:41:22.252Z,19.60
2018-05-07T21:46:25.522Z,19.70
2018-05-07T21:51:28.130Z,19.60
2018-05-07T21:56:30.924Z,19.50
2018-05-07T22:01:35.021Z,19.40
2018-05-07T22:06:37.843Z,19.30
2018-05-07T22:11:40.710Z,19.10
2018-05-07T22:16:44.031Z,19.00
2018-05-07T22:21:48.098Z,19.00
2018-05-07T22:26:50.691Z,18.80
2018-05-07T22:31:53.503Z,18.70
2018-05-07T22:36:56.064Z,18.60
2018-05-07T22:42:00.125Z,18.40
2018-05-07T22:47:02.705Z,18.40
2018-05-07T22:52:05.260Z,18.30
2018-05-07T22:57:09.429Z,18.20
2018-05-07T23:02:12.930Z,18.10
2018-05-07T23:07:16.266Z,18.00
2018-05-07T23:12:18.895Z,17.90
2018-05-07T23:17:23.118Z,17.70
2018-05-07T23:22:25.694Z,17.60
2018-05-07T23:27:28.673Z,17.50
2018-05-07T23:32:32.486Z,17.40
2018-05-07T23:37:35.791Z,17.30
2018-05-07T23:42:38.596Z,17.20
2018-05-07T23:47:41.921Z,17.00
2018-05-07T23:52:44.508Z,16.90
2018-05-07T23:57:47.124Z,16.80
